sensor_id;sensor_type;location;lat;lon;timestamp;temperature;humidity
55329;DHT22;41205;44.264;19.884;2022-11-14T00:01:10;205.40;2252.80
55329;DHT22;41205;44.264;19.884;2022-11-14T00:03:36;205.40;2252.80
55329;DHT22;41205;44.264;19.884;2022-11-14T00:06:06;205.20;2252.80
55329;DHT22;41205;44.264;19.884;2022-11-14T00:08:32;204.90;2252.80
55329;DHT22;41205;44.264;19.884;2022-11-14T00:10:58;180.10;2252.80
55329;DHT22;41205;44.264;19.884;2022-11-14T00:13:23;204.90;2252.80
55329;DHT22;41205;44.264;19.884;2022-11-14T00:15:50;205.00;2252.80
55329;DHT22;41205;44.264;19.884;2022-11-14T00:18:19;205.00;2252.80
55329;DHT22;41205;44.264;19.884;2022-11-14T00:20:48;205.10;2252.80
55329;DHT22;41205;44.264;19.884;2022-11-14T00:23:14;205.10;2252.80
55329;DHT22;41205;44.264;19.884;2022-11-14T00:25:40;205.20;2252.80
55329;DHT22;41205;44.264;19.884;2022-11-14T00:28:07;205.20;2252.80
55329;DHT22;41205;44.264;19.884;2022-11-14T00:30:33;205.30;2252.80
55329;DHT22;41205;44.264;19.884;2022-11-14T00:32:59;205.20;2252.80
55329;DHT22;41205;44.264;19.884;2022-11-14T00:35:24;205.30;2252.80
55329;DHT22;41205;44.264;19.884;2022-11-14T00:37:50;205.30;2252.80
55329;DHT22;41205;44.264;19.884;2022-11-14T00:40:16;205.30;2252.80
55329;DHT22;41205;44.264;19.884;2022-11-14T00:42:42;205.30;2252.80
55329;DHT22;41205;44.264;19.884;2022-11-14T00:45:08;205.30;2252.80
55329;DHT22;41205;44.264;19.884;2022-11-14T00:47:34;205.30;2252.80
55329;DHT22;41205;44.264;19.884;2022-11-14T00:49:59;205.30;2252.80
55329;DHT22;41205;44.264;19.884;2022-11-14T00:52:25;205.30;2252.80
55329;DHT22;41205;44.264;19.884;2022-11-14T00:54:51;205.20;2252.80
55329;DHT22;41205;44.264;19.884;2022-11-14T00:57:16;205.20;2252.80
55329;DHT22;41205;44.264;19.884;2022-11-14T00:59:42;205.10;2252.80
55329;DHT22;41205;44.264;19.884;2022-11-14T01:02:08;205.10;2252.80
55329;DHT22;41205;44.264;19.884;2022-11-14T01:04:33;205.20;2252.80
55329;DHT22;41205;44.264;19.884;2022-11-14T01:06:59;205.20;2252.80
55329;DHT22;41205;44.264;19.884;2022-11-14T01:09:25;205.10;2252.80
55329;DHT22;41205;44.264;19.884;2022-11-14T01:11:50;205.10;2252.80
55329;DHT22;41205;44.264;19.884;2022-11-14T01:14:16;205.10;2252.80
55329;DHT22;41205;44.264;19.884;2022-11-14T01:16:42;205.00;2252.80
55329;DHT22;41205;44.264;19.884;2022-11-14T01:19:07;204.80;2252.80
55329;DHT22;41205;44.264;19.884;2022-11-14T01:21:33;180.10;2252.80
55329;DHT22;41205;44.264;19.884;2022-11-14T01:23:59;180.10;2252.80
55329;DHT22;41205;44.264;19.884;2022-11-14T01:26:24;180.00;2252.80
55329;DHT22;41205;44.264;19.884;2022-11-14T01:28:50;180.00;2252.80
55329;DHT22;41205;44.264;19.884;2022-11-14T01:31:19;179.90;2252.80
55329;DHT22;41205;44.264;19.884;2022-11-14T01:33:48;180.00;2252.80
55329;DHT22;41205;44.264;19.884;2022-11-14T01:36:15;180.00;2252.80
55329;DHT22;41205;44.264;19.884;2022-11-14T01:38:40;179.80;2252.80
55329;DHT22;41205;44.264;19.884;2022-11-14T01:41:06;179.70;2252.80
55329;DHT22;41205;44.264;19.884;2022-11-14T01:43:37;179.70;2252.80
55329;DHT22;41205;44.264;19.884;2022-11-14T01:46:11;179.80;2252.80
55329;DHT22;41205;44.264;19.884;2022-11-14T01:51:35;179.70;2252.80
55329;DHT22;41205;44.264;19.884;2022-11-14T01:54:10;179.60;1945.60
55329;DHT22;41205;44.264;19.884;2022-11-14T01:56:44;179.50;2252.80
55329;DHT22;41205;44.264;19.884;2022-11-14T01:59:16;179.50;2252.80
55329;DHT22;41205;44.264;19.884;2022-11-14T02:01:48;179.50;2252.80
55329;DHT22;41205;44.264;19.884;2022-11-14T02:04:26;179.50;2252.80
55329;DHT22;41205;44.264;19.884;2022-11-14T02:06:55;179.60;2252.80
55329;DHT22;41205;44.264;19.884;2022-11-14T02:09:22;179.70;2252.80
55329;DHT22;41205;44.264;19.884;2022-11-14T02:11:48;179.70;2252.80
55329;DHT22;41205;44.264;19.884;2022-11-14T02:14:14;179.70;2252.80
55329;DHT22;41205;44.264;19.884;2022-11-14T02:16:41;179.70;2252.80
55329;DHT22;41205;44.264;19.884;2022-11-14T02:19:07;179.70;2252.80
55329;DHT22;41205;44.264;19.884;2022-11-14T02:21:34;179.70;2252.80
55329;DHT22;41205;44.264;19.884;2022-11-14T02:24:00;179.70;2252.80
55329;DHT22;41205;44.264;19.884;2022-11-14T02:26:25;179.80;2252.80
55329;DHT22;41205;44.264;19.884;2022-11-14T02:28:51;179.80;2252.80
55329;DHT22;41205;44.264;19.884;2022-11-14T02:31:17;179.80;2252.80
55329;DHT22;41205;44.264;19.884;2022-11-14T02:33:43;179.80;2252.80
55329;DHT22;41205;44.264;19.884;2022-11-14T02:36:08;179.80;2252.80
55329;DHT22;41205;44.264;19.884;2022-11-14T02:38:34;179.70;2252.80
55329;DHT22;41205;44.264;19.884;2022-11-14T02:41:01;179.60;2252.80
55329;DHT22;41205;44.264;19.884;2022-11-14T02:43:27;179.60;2252.80
55329;DHT22;41205;44.264;19.884;2022-11-14T02:45:53;179.70;2252.80
55329;DHT22;41205;44.264;19.884;2022-11-14T02:48:19;179.70;2252.80
55329;DHT22;41205;44.264;19.884;2022-11-14T02:50:47;179.70;2252.80
55329;DHT22;41205;44.264;19.884;2022-11-14T02:53:13;179.60;2252.80
55329;DHT22;41205;44.264;19.884;2022-11-14T02:55:39;179.60;2252.80
55329;DHT22;41205;44.264;19.884;2022-11-14T02:58:04;179.60;2252.80
55329;DHT22;41205;44.264;19.884;2022-11-14T03:00:30;179.60;2252.80
55329;DHT22;41205;44.264;19.884;2022-11-14T03:02:56;179.70;2252.80
55329;DHT22;41205;44.264;19.884;2022-11-14T03:05:21;179.80;2252.80
55329;DHT22;41205;44.264;19.884;2022-11-14T03:07:47;179.80;2252.80
55329;DHT22;41205;44.264;19.884;2022-11-14T03:10:17;179.70;2252.80
55329;DHT22;41205;44.264;19.884;2022-11-14T03:12:42;179.70;2227.20
55329;DHT22;41205;44.264;19.884;2022-11-14T03:15:09;179.60;2252.80
55329;DHT22;41205;44.264;19.884;2022-11-14T03:17:35;179.70;2252.80
55329;DHT22;41205;44.264;19.884;2022-11-14T03:20:00;179.80;2252.80
55329;DHT22;41205;44.264;19.884;2022-11-14T03:22:26;179.80;2252.80
55329;DHT22;41205;44.264;19.884;2022-11-14T03:24:52;179.80;2252.80
55329;DHT22;41205;44.264;19.884;2022-11-14T03:27:19;179.60;1868.80
55329;DHT22;41205;44.264;19.884;2022-11-14T03:29:46;179.70;1996.80
55329;DHT22;41205;44.264;19.884;2022-11-14T03:32:12;179.80;2252.80
55329;DHT22;41205;44.264;19.884;2022-11-14T03:34:37;179.90;1971.20
55329;DHT22;41205;44.264;19.884;2022-11-14T03:37:03;179.90;2022.40
55329;DHT22;41205;44.264;19.884;2022-11-14T03:39:29;180.00;1971.20
55329;DHT22;41205;44.264;19.884;2022-11-14T03:41:54;180.10;2252.80
55329;DHT22;41205;44.264;19.884;2022-11-14T03:44:20;180.10;2252.80
55329;DHT22;41205;44.264;19.884;2022-11-14T03:46:46;180.10;2252.80
55329;DHT22;41205;44.264;19.884;2022-11-14T03:49:12;180.10;2252.80
55329;DHT22;41205;44.264;19.884;2022-11-14T03:51:37;180.10;2252.80
55329;DHT22;41205;44.264;19.884;2022-11-14T03:54:03;204.80;2252.80
55329;DHT22;41205;44.264;19.884;2022-11-14T03:56:29;204.90;2252.80
55329;DHT22;41205;44.264;19.884;2022-11-14T03:58:54;204.80;2252.80
55329;DHT22;41205;44.264;19.884;2022-11-14T04:01:20;204.80;2252.80
55329;DHT22;41205;44.264;19.884;2022-11-14T04:03:46;204.80;2252.80
55329;DHT22;41205;44.264;19.884;2022-11-14T04:06:11;204.80;2252.80
55329;DHT22;41205;44.264;19.884;2022-11-14T04:08:40;204.80;2252.80
55329;DHT22;41205;44.264;19.884;2022-11-14T04:11:06;180.10;2252.80
55329;DHT22;41205;44.264;19.884;2022-11-14T04:13:32;180.10;2252.80
55329;DHT22;41205;44.264;19.884;2022-11-14T04:15:58;180.00;2252.80
55329;DHT22;41205;44.264;19.884;2022-11-14T04:18:25;180.10;2252.80
55329;DHT22;41205;44.264;19.884;2022-11-14T04:20:51;180.00;2252.80
55329;DHT22;41205;44.264;19.884;2022-11-14T04:23:17;180.00;2252.80
55329;DHT22;41205;44.264;19.884;2022-11-14T04:25:44;180.00;2252.80
55329;DHT22;41205;44.264;19.884;2022-11-14T04:28:10;180.00;2252.80
55329;DHT22;41205;44.264;19.884;2022-11-14T04:30:36;180.00;2252.80
55329;DHT22;41205;44.264;19.884;2022-11-14T04:33:02;180.00;2252.80
55329;DHT22;41205;44.264;19.884;2022-11-14T04:35:28;179.90;2252.80
55329;DHT22;41205;44.264;19.884;2022-11-14T04:37:54;179.70;2252.80
55329;DHT22;41205;44.264;19.884;2022-11-14T04:40:19;179.70;2252.80
55329;DHT22;41205;44.264;19.884;2022-11-14T04:42:45;179.70;2252.80
55329;DHT22;41205;44.264;19.884;2022-11-14T04:45:11;179.70;2252.80
55329;DHT22;41205;44.264;19.884;2022-11-14T04:47:37;179.70;2252.80
55329;DHT22;41205;44.264;19.884;2022-11-14T04:50:03;179.70;2252.80
55329;DHT22;41205;44.264;19.884;2022-11-14T04:52:29;179.70;2252.80
55329;DHT22;41205;44.264;19.884;2022-11-14T04:54:54;179.70;2252.80
55329;DHT22;41205;44.264;19.884;2022-11-14T04:57:20;179.70;2252.80
55329;DHT22;41205;44.264;19.884;2022-11-14T04:59:46;179.70;2252.80
55329;DHT22;41205;44.264;19.884;2022-11-14T05:02:11;179.60;2252.80
55329;DHT22;41205;44.264;19.884;2022-11-14T05:04:37;179.60;2252.80
55329;DHT22;41205;44.264;19.884;2022-11-14T05:07:03;179.70;2252.80
55329;DHT22;41205;44.264;19.884;2022-11-14T05:09:29;179.60;2252.80
55329;DHT22;41205;44.264;19.884;2022-11-14T05:11:54;179.70;2252.80
55329;DHT22;41205;44.264;19.884;2022-11-14T05:14:20;179.60;2252.80
55329;DHT22;41205;44.264;19.884;2022-11-14T05:16:46;179.60;2252.80
55329;DHT22;41205;44.264;19.884;2022-11-14T05:19:12;179.60;2252.80
55329;DHT22;41205;44.264;19.884;2022-11-14T05:21:37;179.70;2252.80
55329;DHT22;41205;44.264;19.884;2022-11-14T05:24:03;179.70;2252.80
55329;DHT22;41205;44.264;19.884;2022-11-14T05:26:29;179.70;2252.80
55329;DHT22;41205;44.264;19.884;2022-11-14T05:28:55;179.70;2252.80
55329;DHT22;41205;44.264;19.884;2022-11-14T05:31:20;179.70;2252.80
55329;DHT22;41205;44.264;19.884;2022-11-14T05:33:46;179.80;2252.80
55329;DHT22;41205;44.264;19.884;2022-11-14T05:36:14;179.80;2252.80
55329;DHT22;41205;44.264;19.884;2022-11-14T05:38:41;179.80;2252.80
55329;DHT22;41205;44.264;19.884;2022-11-14T05:41:07;179.90;2252.80
55329;DHT22;41205;44.264;19.884;2022-11-14T05:43:33;179.90;2252.80
55329;DHT22;41205;44.264;19.884;2022-11-14T05:46:04;180.00;2252.80
55329;DHT22;41205;44.264;19.884;2022-11-14T05:48:30;180.00;2252.80
55329;DHT22;41205;44.264;19.884;2022-11-14T05:50:57;180.10;2252.80
55329;DHT22;41205;44.264;19.884;2022-11-14T05:53:24;204.80;2252.80
55329;DHT22;41205;44.264;19.884;2022-11-14T05:55:50;204.90;2252.80
55329;DHT22;41205;44.264;19.884;2022-11-14T05:58:16;204.90;2252.80
55329;DHT22;41205;44.264;19.884;2022-11-14T06:00:42;204.90;2252.80
55329;DHT22;41205;44.264;19.884;2022-11-14T06:03:07;204.90;2252.80
55329;DHT22;41205;44.264;19.884;2022-11-14T06:05:34;205.00;2252.80
55329;DHT22;41205;44.264;19.884;2022-11-14T06:08:00;205.00;2252.80
55329;DHT22;41205;44.264;19.884;2022-11-14T06:10:26;205.10;2252.80
55329;DHT22;41205;44.264;19.884;2022-11-14T06:12:52;205.00;2252.80
55329;DHT22;41205;44.264;19.884;2022-11-14T06:15:18;204.90;2252.80
55329;DHT22;41205;44.264;19.884;2022-11-14T06:17:44;204.90;2252.80
55329;DHT22;41205;44.264;19.884;2022-11-14T06:20:10;204.90;2252.80
55329;DHT22;41205;44.264;19.884;2022-11-14T06:22:39;204.90;2252.80
55329;DHT22;41205;44.264;19.884;2022-11-14T06:25:05;205.00;2252.80
55329;DHT22;41205;44.264;19.884;2022-11-14T06:27:31;204.80;2252.80
55329;DHT22;41205;44.264;19.884;2022-11-14T06:29:56;204.90;2252.80
55329;DHT22;41205;44.264;19.884;2022-11-14T06:32:22;204.90;2252.80
55329;DHT22;41205;44.264;19.884;2022-11-14T06:34:48;204.90;2252.80
55329;DHT22;41205;44.264;19.884;2022-11-14T06:37:13;204.90;2252.80
55329;DHT22;41205;44.264;19.884;2022-11-14T06:39:39;205.10;2252.80
55329;DHT22;41205;44.264;19.884;2022-11-14T06:42:05;205.30;2252.80
55329;DHT22;41205;44.264;19.884;2022-11-14T06:44:30;205.40;2252.80
55329;DHT22;41205;44.264;19.884;2022-11-14T06:46:56;205.60;2252.80
55329;DHT22;41205;44.264;19.884;2022-11-14T06:49:22;205.70;2252.80
55329;DHT22;41205;44.264;19.884;2022-11-14T06:51:50;205.70;2252.80
55329;DHT22;41205;44.264;19.884;2022-11-14T06:54:15;205.70;2252.80
55329;DHT22;41205;44.264;19.884;2022-11-14T06:56:41;230.60;2252.80
55329;DHT22;41205;44.264;19.884;2022-11-14T06:59:07;205.70;2252.80
55329;DHT22;41205;44.264;19.884;2022-11-14T07:01:33;205.50;2252.80
55329;DHT22;41205;44.264;19.884;2022-11-14T07:03:58;205.40;2252.80
55329;DHT22;41205;44.264;19.884;2022-11-14T07:06:27;205.50;2252.80
55329;DHT22;41205;44.264;19.884;2022-11-14T07:08:55;205.60;2252.80
55329;DHT22;41205;44.264;19.884;2022-11-14T07:11:23;205.60;2252.80
55329;DHT22;41205;44.264;19.884;2022-11-14T07:13:51;205.60;2252.80
55329;DHT22;41205;44.264;19.884;2022-11-14T07:16:17;205.70;2252.80
55329;DHT22;41205;44.264;19.884;2022-11-14T07:18:43;230.40;2252.80
55329;DHT22;41205;44.264;19.884;2022-11-14T07:21:09;230.40;2252.80
55329;DHT22;41205;44.264;19.884;2022-11-14T07:23:38;230.40;2252.80
55329;DHT22;41205;44.264;19.884;2022-11-14T07:26:06;230.50;2252.80
55329;DHT22;41205;44.264;19.884;2022-11-14T07:28:40;230.60;2252.80
55329;DHT22;41205;44.264;19.884;2022-11-14T07:31:08;230.90;2252.80
55329;DHT22;41205;44.264;19.884;2022-11-14T07:33:34;256.50;2252.80
55329;DHT22;41205;44.264;19.884;2022-11-14T07:36:00;307.30;2304.00
55329;DHT22;41205;44.264;19.884;2022-11-14T07:38:26;333.70;2329.60
55329;DHT22;41205;44.264;19.884;2022-11-14T07:41:03;384.10;2329.60
55329;DHT22;41205;44.264;19.884;2022-11-14T07:43:29;359.00;2329.60
55329;DHT22;41205;44.264;19.884;2022-11-14T07:46:00;359.00;2329.60
55329;DHT22;41205;44.264;19.884;2022-11-14T07:48:27;384.40;2329.60
55329;DHT22;41205;44.264;19.884;2022-11-14T07:50:52;410.50;2329.60
55329;DHT22;41205;44.264;19.884;2022-11-14T07:53:18;460.90;2150.40
55329;DHT22;41205;44.264;19.884;2022-11-14T07:55:44;435.70;2150.40
55329;DHT22;41205;44.264;19.884;2022-11-14T07:58:10;435.60;2150.40
55329;DHT22;41205;44.264;19.884;2022-11-14T08:00:35;435.60;2124.80
55329;DHT22;41205;44.264;19.884;2022-11-14T08:03:01;460.90;2150.40
55329;DHT22;41205;44.264;19.884;2022-11-14T08:05:27;461.70;2048.00
55329;DHT22;41205;44.264;19.884;2022-11-14T08:07:53;486.60;1996.80
55329;DHT22;41205;44.264;19.884;2022-11-14T08:10:18;486.80;1996.80
55329;DHT22;41205;44.264;19.884;2022-11-14T08:12:45;512.00;1894.40
55329;DHT22;41205;44.264;19.884;2022-11-14T08:15:12;512.30;1894.40
55329;DHT22;41205;44.264;19.884;2022-11-14T08:17:37;512.60;1894.40
55329;DHT22;41205;44.264;19.884;2022-11-14T08:20:05;512.30;1894.40
55329;DHT22;41205;44.264;19.884;2022-11-14T08:22:30;512.80;1868.80
55329;DHT22;41205;44.264;19.884;2022-11-14T08:24:57;512.10;1894.40
55329;DHT22;41205;44.264;19.884;2022-11-14T08:27:23;512.30;1868.80
55329;DHT22;41205;44.264;19.884;2022-11-14T08:29:49;512.40;1920.00
55329;DHT22;41205;44.264;19.884;2022-11-14T08:32:16;538.20;1792.00
55329;DHT22;41205;44.264;19.884;2022-11-14T08:34:42;512.80;1868.80
55329;DHT22;41205;44.264;19.884;2022-11-14T08:37:07;563.20;1817.60
55329;DHT22;41205;44.264;19.884;2022-11-14T08:39:33;563.20;1792.00
55329;DHT22;41205;44.264;19.884;2022-11-14T08:41:59;538.20;1817.60
55329;DHT22;41205;44.264;19.884;2022-11-14T08:44:25;538.20;1792.00
55329;DHT22;41205;44.264;19.884;2022-11-14T08:46:52;537.60;1843.20
55329;DHT22;41205;44.264;19.884;2022-11-14T08:49:17;538.00;1817.60
55329;DHT22;41205;44.264;19.884;2022-11-14T08:51:43;512.50;1868.80
55329;DHT22;41205;44.264;19.884;2022-11-14T08:54:09;512.40;1894.40
55329;DHT22;41205;44.264;19.884;2022-11-14T08:56:35;512.50;1868.80
55329;DHT22;41205;44.264;19.884;2022-11-14T08:59:04;563.90;1766.40
55329;DHT22;41205;44.264;19.884;2022-11-14T09:01:29;538.30;1792.00
55329;DHT22;41205;44.264;19.884;2022-11-14T09:03:57;563.80;1766.40
55329;DHT22;41205;44.264;19.884;2022-11-14T09:06:24;563.70;1792.00
55329;DHT22;41205;44.264;19.884;2022-11-14T09:08:49;588.90;1740.80
55329;DHT22;41205;44.264;19.884;2022-11-14T09:11:15;589.00;1715.20
55329;DHT22;41205;44.264;19.884;2022-11-14T09:13:41;563.80;1792.00
55329;DHT22;41205;44.264;19.884;2022-11-14T09:16:07;563.60;1766.40
55329;DHT22;41205;44.264;19.884;2022-11-14T09:18:32;563.50;1792.00
55329;DHT22;41205;44.264;19.884;2022-11-14T09:21:00;563.90;1766.40
55329;DHT22;41205;44.264;19.884;2022-11-14T09:23:26;537.90;1868.80
55329;DHT22;41205;44.264;19.884;2022-11-14T09:25:52;538.20;1817.60
55329;DHT22;41205;44.264;19.884;2022-11-14T09:28:19;512.10;1894.40
55329;DHT22;41205;44.264;19.884;2022-11-14T09:30:44;487.00;1945.60
55329;DHT22;41205;44.264;19.884;2022-11-14T09:33:10;512.80;1843.20
55329;DHT22;41205;44.264;19.884;2022-11-14T09:35:36;512.40;1843.20
55329;DHT22;41205;44.264;19.884;2022-11-14T09:38:08;512.90;1868.80
55329;DHT22;41205;44.264;19.884;2022-11-14T09:46:03;537.90;1817.60
55329;DHT22;41205;44.264;19.884;2022-11-14T09:48:35;512.80;1843.20
55329;DHT22;41205;44.264;19.884;2022-11-14T09:53:35;538.30;1792.00
55329;DHT22;41205;44.264;19.884;2022-11-14T09:56:02;512.50;1868.80
55329;DHT22;41205;44.264;19.884;2022-11-14T09:58:27;512.30;1868.80
55329;DHT22;41205;44.264;19.884;2022-11-14T10:03:50;461.50;1996.80
55329;DHT22;41205;44.264;19.884;2022-11-14T10:12:25;435.90;2124.80
55329;DHT22;41205;44.264;19.884;2022-11-14T10:26:06;410.30;2355.20
55329;DHT22;41205;44.264;19.884;2022-11-14T10:34:04;409.70;2355.20
55329;DHT22;41205;44.264;19.884;2022-11-14T10:39:22;409.70;2355.20
55329;DHT22;41205;44.264;19.884;2022-11-14T10:41:53;409.70;2355.20
55329;DHT22;41205;44.264;19.884;2022-11-14T10:44:25;384.80;2329.60
55329;DHT22;41205;44.264;19.884;2022-11-14T10:47:01;409.70;2355.20
55329;DHT22;41205;44.264;19.884;2022-11-14T10:49:31;409.90;2355.20
55329;DHT22;41205;44.264;19.884;2022-11-14T10:52:02;409.80;2355.20
55329;DHT22;41205;44.264;19.884;2022-11-14T10:54:54;409.60;2355.20
55329;DHT22;41205;44.264;19.884;2022-11-14T10:57:21;409.70;2355.20
55329;DHT22;41205;44.264;19.884;2022-11-14T10:59:47;409.60;2355.20
55329;DHT22;41205;44.264;19.884;2022-11-14T11:02:13;409.60;2355.20
55329;DHT22;41205;44.264;19.884;2022-11-14T11:04:41;384.90;2329.60
55329;DHT22;41205;44.264;19.884;2022-11-14T11:09:35;410.00;2355.20
55329;DHT22;41205;44.264;19.884;2022-11-14T11:12:41;409.70;2355.20
55329;DHT22;41205;44.264;19.884;2022-11-14T11:17:54;410.00;2355.20
55329;DHT22;41205;44.264;19.884;2022-11-14T11:23:05;409.90;2355.20
55329;DHT22;41205;44.264;19.884;2022-11-14T11:25:32;410.10;2355.20
55329;DHT22;41205;44.264;19.884;2022-11-14T11:28:12;410.20;2355.20
55329;DHT22;41205;44.264;19.884;2022-11-14T11:30:38;410.00;2355.20
55329;DHT22;41205;44.264;19.884;2022-11-14T11:33:34;409.90;2355.20
55329;DHT22;41205;44.264;19.884;2022-11-14T11:38:31;410.00;2355.20
55329;DHT22;41205;44.264;19.884;2022-11-14T11:44:01;409.80;2355.20
55329;DHT22;41205;44.264;19.884;2022-11-14T11:46:38;409.80;2355.20
55329;DHT22;41205;44.264;19.884;2022-11-14T11:49:22;410.00;2355.20
55329;DHT22;41205;44.264;19.884;2022-11-14T11:51:54;410.00;2355.20
55329;DHT22;41205;44.264;19.884;2022-11-14T11:54:29;410.00;2355.20
55329;DHT22;41205;44.264;19.884;2022-11-14T11:57:00;410.00;2355.20
55329;DHT22;41205;44.264;19.884;2022-11-14T11:59:41;410.00;2355.20
55329;DHT22;41205;44.264;19.884;2022-11-14T12:02:26;410.20;2355.20
55329;DHT22;41205;44.264;19.884;2022-11-14T12:04:54;410.30;2355.20
55329;DHT22;41205;44.264;19.884;2022-11-14T12:07:29;410.50;2355.20
55329;DHT22;41205;44.264;19.884;2022-11-14T12:10:03;410.50;2355.20
55329;DHT22;41205;44.264;19.884;2022-11-14T12:15:54;410.20;2355.20
55329;DHT22;41205;44.264;19.884;2022-11-14T12:35:27;410.50;2355.20
55329;DHT22;41205;44.264;19.884;2022-11-14T12:37:55;410.40;2355.20
55329;DHT22;41205;44.264;19.884;2022-11-14T12:42:51;410.50;2355.20
55329;DHT22;41205;44.264;19.884;2022-11-14T12:48:32;435.30;2355.20
55329;DHT22;41205;44.264;19.884;2022-11-14T12:50:59;435.30;2355.20
55329;DHT22;41205;44.264;19.884;2022-11-14T13:15:53;435.30;2355.20
55329;DHT22;41205;44.264;19.884;2022-11-14T13:27:27;435.20;2355.20
55329;DHT22;41205;44.264;19.884;2022-11-14T13:29:54;435.20;2355.20
55329;DHT22;41205;44.264;19.884;2022-11-14T13:35:12;435.60;2355.20
55329;DHT22;41205;44.264;19.884;2022-11-14T13:40:55;435.50;2355.20
55329;DHT22;41205;44.264;19.884;2022-11-14T13:43:50;435.60;2355.20
55329;DHT22;41205;44.264;19.884;2022-11-14T13:51:53;435.30;2355.20
55329;DHT22;41205;44.264;19.884;2022-11-14T13:54:20;435.30;2355.20
55329;DHT22;41205;44.264;19.884;2022-11-14T13:57:10;435.30;2355.20
55329;DHT22;41205;44.264;19.884;2022-11-14T14:18:46;435.20;2355.20
55329;DHT22;41205;44.264;19.884;2022-11-14T14:24:01;410.50;2355.20
55329;DHT22;41205;44.264;19.884;2022-11-14T14:32:15;410.50;2355.20
55329;DHT22;41205;44.264;19.884;2022-11-14T14:34:41;410.50;2355.20
55329;DHT22;41205;44.264;19.884;2022-11-14T14:37:27;410.30;2355.20
55329;DHT22;41205;44.264;19.884;2022-11-14T14:39:57;410.30;2355.20
55329;DHT22;41205;44.264;19.884;2022-11-14T14:42:24;410.30;2355.20
55329;DHT22;41205;44.264;19.884;2022-11-14T14:44:51;410.20;2355.20
55329;DHT22;41205;44.264;19.884;2022-11-14T14:49:55;410.00;2355.20
55329;DHT22;41205;44.264;19.884;2022-11-14T14:52:29;409.80;2355.20
55329;DHT22;41205;44.264;19.884;2022-11-14T14:54:56;409.60;2355.20
55329;DHT22;41205;44.264;19.884;2022-11-14T14:57:22;384.90;2329.60
55329;DHT22;41205;44.264;19.884;2022-11-14T15:00:05;384.90;2329.60
55329;DHT22;41205;44.264;19.884;2022-11-14T15:02:32;384.70;2329.60
55329;DHT22;41205;44.264;19.884;2022-11-14T15:04:59;384.60;2329.60
55329;DHT22;41205;44.264;19.884;2022-11-14T15:07:26;384.50;2329.60
55329;DHT22;41205;44.264;19.884;2022-11-14T15:09:59;384.40;2329.60
55329;DHT22;41205;44.264;19.884;2022-11-14T15:12:28;384.30;2329.60
55329;DHT22;41205;44.264;19.884;2022-11-14T15:14:55;384.30;2329.60
55329;DHT22;41205;44.264;19.884;2022-11-14T15:17:22;384.10;2329.60
55329;DHT22;41205;44.264;19.884;2022-11-14T15:19:50;384.10;2329.60
55329;DHT22;41205;44.264;19.884;2022-11-14T15:24:43;384.00;2329.60
55329;DHT22;41205;44.264;19.884;2022-11-14T15:27:13;359.30;2329.60
55329;DHT22;41205;44.264;19.884;2022-11-14T15:29:56;359.20;2329.60
55329;DHT22;41205;44.264;19.884;2022-11-14T15:32:25;359.10;2329.60
55329;DHT22;41205;44.264;19.884;2022-11-14T15:40:29;358.90;2329.60
55329;DHT22;41205;44.264;19.884;2022-11-14T15:42:55;358.80;2329.60
55329;DHT22;41205;44.264;19.884;2022-11-14T15:45:22;358.70;2329.60
55329;DHT22;41205;44.264;19.884;2022-11-14T15:47:59;358.70;2329.60
55329;DHT22;41205;44.264;19.884;2022-11-14T15:50:32;358.60;2329.60
55329;DHT22;41205;44.264;19.884;2022-11-14T15:53:03;358.50;2329.60
55329;DHT22;41205;44.264;19.884;2022-11-14T15:55:29;358.60;2329.60
55329;DHT22;41205;44.264;19.884;2022-11-14T15:57:55;358.60;2329.60
55329;DHT22;41205;44.264;19.884;2022-11-14T16:00:21;358.60;2329.60
55329;DHT22;41205;44.264;19.884;2022-11-14T16:02:50;358.60;2329.60
55329;DHT22;41205;44.264;19.884;2022-11-14T16:05:20;358.60;2329.60
55329;DHT22;41205;44.264;19.884;2022-11-14T16:07:47;358.40;2329.60
55329;DHT22;41205;44.264;19.884;2022-11-14T16:10:15;333.70;2329.60
55329;DHT22;41205;44.264;19.884;2022-11-14T16:12:42;333.70;2329.60
55329;DHT22;41205;44.264;19.884;2022-11-14T16:15:07;333.60;2329.60
55329;DHT22;41205;44.264;19.884;2022-11-14T16:17:39;333.50;2329.60
55329;DHT22;41205;44.264;19.884;2022-11-14T16:20:06;333.50;2329.60
55329;DHT22;41205;44.264;19.884;2022-11-14T16:22:35;333.50;2329.60
55329;DHT22;41205;44.264;19.884;2022-11-14T16:25:01;333.50;2329.60
55329;DHT22;41205;44.264;19.884;2022-11-14T16:27:27;333.60;2329.60
55329;DHT22;41205;44.264;19.884;2022-11-14T16:29:53;333.50;2329.60
55329;DHT22;41205;44.264;19.884;2022-11-14T16:32:18;333.40;2329.60
55329;DHT22;41205;44.264;19.884;2022-11-14T16:34:44;333.40;2329.60
55329;DHT22;41205;44.264;19.884;2022-11-14T16:37:12;333.50;2329.60
55329;DHT22;41205;44.264;19.884;2022-11-14T16:39:38;333.50;2329.60
55329;DHT22;41205;44.264;19.884;2022-11-14T16:42:04;333.60;2329.60
55329;DHT22;41205;44.264;19.884;2022-11-14T16:44:31;333.50;2329.60
55329;DHT22;41205;44.264;19.884;2022-11-14T16:46:56;333.60;2329.60
55329;DHT22;41205;44.264;19.884;2022-11-14T16:49:22;333.50;2329.60
55329;DHT22;41205;44.264;19.884;2022-11-14T16:51:49;333.40;2329.60
55329;DHT22;41205;44.264;19.884;2022-11-14T16:54:16;333.40;2329.60
55329;DHT22;41205;44.264;19.884;2022-11-14T16:56:42;333.40;2329.60
55329;DHT22;41205;44.264;19.884;2022-11-14T16:59:09;333.40;2329.60
55329;DHT22;41205;44.264;19.884;2022-11-14T17:01:35;333.40;2329.60
55329;DHT22;41205;44.264;19.884;2022-11-14T17:04:01;333.50;2329.60
55329;DHT22;41205;44.264;19.884;2022-11-14T17:06:28;333.40;2329.60
55329;DHT22;41205;44.264;19.884;2022-11-14T17:08:57;333.50;2329.60
55329;DHT22;41205;44.264;19.884;2022-11-14T17:11:24;333.60;2329.60
55329;DHT22;41205;44.264;19.884;2022-11-14T17:13:50;333.60;2329.60
55329;DHT22;41205;44.264;19.884;2022-11-14T17:16:16;333.50;2329.60
55329;DHT22;41205;44.264;19.884;2022-11-14T17:18:42;333.50;2329.60